sensor_id;sensor_type;location;lat;lon;timestamp;temperature;humidity
39621;DHT22;25309;48.686;9.170;2023-03-16T00:00:51;2.40;99.90
39621;DHT22;25309;48.686;9.170;2023-03-16T00:03:19;2.40;99.90
39621;DHT22;25309;48.686;9.170;2023-03-16T00:05:46;2.40;99.90
39621;DHT22;25309;48.686;9.170;2023-03-16T00:08:16;2.40;99.90
39621;DHT22;25309;48.686;9.170;2023-03-16T00:10:43;2.40;99.90
39621;DHT22;25309;48.686;9.170;2023-03-16T00:13:13;2.40;99.90
39621;DHT22;25309;48.686;9.170;2023-03-16T00:15:40;2.30;99.90
39621;DHT22;25309;48.686;9.170;2023-03-16T00:18:07;2.30;99.90
39621;DHT22;25309;48.686;9.170;2023-03-16T00:20:34;2.30;99.90
39621;DHT22;25309;48.686;9.170;2023-03-16T00:23:01;2.30;99.90
39621;DHT22;25309;48.686;9.170;2023-03-16T00:25:29;2.20;99.90
39621;DHT22;25309;48.686;9.170;2023-03-16T00:27:59;2.30;99.90
39621;DHT22;25309;48.686;9.170;2023-03-16T00:30:29;2.20;99.90
39621;DHT22;25309;48.686;9.170;2023-03-16T00:32:57;2.20;99.90
39621;DHT22;25309;48.686;9.170;2023-03-16T00:35:24;2.20;99.90
39621;DHT22;25309;48.686;9.170;2023-03-16T00:37:51;2.20;99.90
39621;DHT22;25309;48.686;9.170;2023-03-16T00:40:18;2.20;99.90
39621;DHT22;25309;48.686;9.170;2023-03-16T00:42:46;2.20;99.90
39621;DHT22;25309;48.686;9.170;2023-03-16T00:45:13;2.20;99.90
39621;DHT22;25309;48.686;9.170;2023-03-16T00:47:40;2.20;99.90
39621;DHT22;25309;48.686;9.170;2023-03-16T00:50:08;2.20;99.90
39621;DHT22;25309;48.686;9.170;2023-03-16T00:52:35;2.20;99.90
39621;DHT22;25309;48.686;9.170;2023-03-16T00:55:03;2.20;99.90
39621;DHT22;25309;48.686;9.170;2023-03-16T00:57:30;2.20;99.90
39621;DHT22;25309;48.686;9.170;2023-03-16T00:59:59;2.10;99.90
39621;DHT22;25309;48.686;9.170;2023-03-16T01:02:26;2.10;99.90
39621;DHT22;25309;48.686;9.170;2023-03-16T01:04:53;2.10;99.90
39621;DHT22;25309;48.686;9.170;2023-03-16T01:07:21;2.10;99.90
39621;DHT22;25309;48.686;9.170;2023-03-16T01:09:49;2.10;99.90
39621;DHT22;25309;48.686;9.170;2023-03-16T01:12:18;2.10;99.90
39621;DHT22;25309;48.686;9.170;2023-03-16T01:14:45;2.00;99.90
39621;DHT22;25309;48.686;9.170;2023-03-16T01:17:15;2.00;99.90
39621;DHT22;25309;48.686;9.170;2023-03-16T01:19:42;2.00;99.90
39621;DHT22;25309;48.686;9.170;2023-03-16T01:22:10;1.90;99.90
39621;DHT22;25309;48.686;9.170;2023-03-16T01:24:38;1.80;99.90
39621;DHT22;25309;48.686;9.170;2023-03-16T01:27:06;1.80;99.90
39621;DHT22;25309;48.686;9.170;2023-03-16T01:29:34;1.80;99.90
39621;DHT22;25309;48.686;9.170;2023-03-16T01:32:02;1.80;99.90
39621;DHT22;25309;48.686;9.170;2023-03-16T01:34:32;1.80;99.90
39621;DHT22;25309;48.686;9.170;2023-03-16T01:37:00;1.80;99.90
39621;DHT22;25309;48.686;9.170;2023-03-16T01:39:48;1.80;99.90
39621;DHT22;25309;48.686;9.170;2023-03-16T01:42:15;1.90;99.90
39621;DHT22;25309;48.686;9.170;2023-03-16T01:44:51;1.80;99.90
39621;DHT22;25309;48.686;9.170;2023-03-16T01:47:21;1.80;99.90
39621;DHT22;25309;48.686;9.170;2023-03-16T01:49:52;1.90;99.90
39621;DHT22;25309;48.686;9.170;2023-03-16T01:52:25;1.80;99.90
39621;DHT22;25309;48.686;9.170;2023-03-16T01:54:56;1.90;99.90
39621;DHT22;25309;48.686;9.170;2023-03-16T01:57:27;1.90;99.90
39621;DHT22;25309;48.686;9.170;2023-03-16T01:59:58;1.90;99.90
39621;DHT22;25309;48.686;9.170;2023-03-16T02:03:04;1.80;99.90
39621;DHT22;25309;48.686;9.170;2023-03-16T02:05:49;1.80;99.90
39621;DHT22;25309;48.686;9.170;2023-03-16T02:08:21;1.80;99.90
39621;DHT22;25309;48.686;9.170;2023-03-16T02:10:48;1.80;99.90
39621;DHT22;25309;48.686;9.170;2023-03-16T02:13:16;1.90;99.90
39621;DHT22;25309;48.686;9.170;2023-03-16T02:15:43;1.90;99.90
39621;DHT22;25309;48.686;9.170;2023-03-16T02:18:10;1.90;99.90
39621;DHT22;25309;48.686;9.170;2023-03-16T02:20:42;1.90;99.90
39621;DHT22;25309;48.686;9.170;2023-03-16T02:23:17;1.90;99.90
39621;DHT22;25309;48.686;9.170;2023-03-16T02:25:50;1.90;99.90
39621;DHT22;25309;48.686;9.170;2023-03-16T02:28:24;1.90;99.90
39621;DHT22;25309;48.686;9.170;2023-03-16T02:30:54;1.90;99.90
39621;DHT22;25309;48.686;9.170;2023-03-16T02:33:21;1.80;99.90
39621;DHT22;25309;48.686;9.170;2023-03-16T02:35:49;1.70;99.90
39621;DHT22;25309;48.686;9.170;2023-03-16T02:38:16;1.60;99.90
39621;DHT22;25309;48.686;9.170;2023-03-16T02:40:56;1.50;99.90
39621;DHT22;25309;48.686;9.170;2023-03-16T02:43:26;1.40;99.90
39621;DHT22;25309;48.686;9.170;2023-03-16T02:46:05;1.40;99.90
39621;DHT22;25309;48.686;9.170;2023-03-16T02:48:36;1.30;99.90
39621;DHT22;25309;48.686;9.170;2023-03-16T02:51:06;1.40;99.90
39621;DHT22;25309;48.686;9.170;2023-03-16T02:53:33;1.40;99.90
39621;DHT22;25309;48.686;9.170;2023-03-16T02:56:01;1.40;99.90
39621;DHT22;25309;48.686;9.170;2023-03-16T02:58:30;1.40;99.90
39621;DHT22;25309;48.686;9.170;2023-03-16T03:01:00;1.40;99.90
39621;DHT22;25309;48.686;9.170;2023-03-16T03:03:28;1.40;99.90
39621;DHT22;25309;48.686;9.170;2023-03-16T03:05:57;1.30;99.90
39621;DHT22;25309;48.686;9.170;2023-03-16T03:08:24;1.30;99.90
39621;DHT22;25309;48.686;9.170;2023-03-16T03:10:52;1.30;99.90
39621;DHT22;25309;48.686;9.170;2023-03-16T03:13:18;1.30;99.90
39621;DHT22;25309;48.686;9.170;2023-03-16T03:15:45;1.30;99.90
39621;DHT22;25309;48.686;9.170;2023-03-16T03:18:12;1.20;99.90
39621;DHT22;25309;48.686;9.170;2023-03-16T03:20:41;1.20;99.90
39621;DHT22;25309;48.686;9.170;2023-03-16T03:23:09;1.20;99.90
39621;DHT22;25309;48.686;9.170;2023-03-16T03:25:36;1.10;99.90
39621;DHT22;25309;48.686;9.170;2023-03-16T03:28:03;1.10;99.90
39621;DHT22;25309;48.686;9.170;2023-03-16T03:30:34;1.10;99.90
39621;DHT22;25309;48.686;9.170;2023-03-16T03:33:02;1.20;99.90
39621;DHT22;25309;48.686;9.170;2023-03-16T03:35:29;1.20;99.90
39621;DHT22;25309;48.686;9.170;2023-03-16T03:37:59;1.20;99.90
39621;DHT22;25309;48.686;9.170;2023-03-16T03:40:26;1.30;99.90
39621;DHT22;25309;48.686;9.170;2023-03-16T03:42:57;1.30;99.90
39621;DHT22;25309;48.686;9.170;2023-03-16T03:45:24;1.20;99.90
39621;DHT22;25309;48.686;9.170;2023-03-16T03:47:51;1.10;99.90
39621;DHT22;25309;48.686;9.170;2023-03-16T03:50:21;1.10;99.90
39621;DHT22;25309;48.686;9.170;2023-03-16T03:52:55;1.10;99.90
39621;DHT22;25309;48.686;9.170;2023-03-16T03:55:24;1.10;99.90
39621;DHT22;25309;48.686;9.170;2023-03-16T03:57:51;1.00;99.90
39621;DHT22;25309;48.686;9.170;2023-03-16T04:00:18;1.00;99.90
39621;DHT22;25309;48.686;9.170;2023-03-16T04:02:48;0.90;99.90
39621;DHT22;25309;48.686;9.170;2023-03-16T04:05:32;0.80;99.90
39621;DHT22;25309;48.686;9.170;2023-03-16T04:07:59;0.70;99.90
39621;DHT22;25309;48.686;9.170;2023-03-16T04:10:28;0.70;99.90
39621;DHT22;25309;48.686;9.170;2023-03-16T04:12:57;0.60;99.90
39621;DHT22;25309;48.686;9.170;2023-03-16T04:15:25;0.60;99.90
39621;DHT22;25309;48.686;9.170;2023-03-16T04:18:01;0.60;99.90
39621;DHT22;25309;48.686;9.170;2023-03-16T04:20:29;0.60;99.90
39621;DHT22;25309;48.686;9.170;2023-03-16T04:22:56;0.60;99.90
39621;DHT22;25309;48.686;9.170;2023-03-16T04:25:29;0.60;99.90
39621;DHT22;25309;48.686;9.170;2023-03-16T04:27:57;0.70;99.90
39621;DHT22;25309;48.686;9.170;2023-03-16T04:30:27;0.70;99.90
39621;DHT22;25309;48.686;9.170;2023-03-16T04:33:06;0.70;99.90
39621;DHT22;25309;48.686;9.170;2023-03-16T04:35:33;0.70;99.90
39621;DHT22;25309;48.686;9.170;2023-03-16T04:38:00;0.60;99.90
39621;DHT22;25309;48.686;9.170;2023-03-16T04:40:38;0.60;99.90
39621;DHT22;25309;48.686;9.170;2023-03-16T04:43:12;0.70;99.90
39621;DHT22;25309;48.686;9.170;2023-03-16T04:45:40;0.70;99.90
39621;DHT22;25309;48.686;9.170;2023-03-16T04:48:08;0.70;99.90
39621;DHT22;25309;48.686;9.170;2023-03-16T04:50:36;0.70;99.90
39621;DHT22;25309;48.686;9.170;2023-03-16T04:53:04;0.70;99.90
39621;DHT22;25309;48.686;9.170;2023-03-16T04:55:31;0.70;99.90
39621;DHT22;25309;48.686;9.170;2023-03-16T04:58:00;0.80;99.90
39621;DHT22;25309;48.686;9.170;2023-03-16T05:00:31;0.80;99.90
39621;DHT22;25309;48.686;9.170;2023-03-16T05:03:04;0.80;99.90
39621;DHT22;25309;48.686;9.170;2023-03-16T05:05:31;0.80;99.90
39621;DHT22;25309;48.686;9.170;2023-03-16T05:07:59;0.80;99.90
39621;DHT22;25309;48.686;9.170;2023-03-16T05:10:29;0.80;99.90
39621;DHT22;25309;48.686;9.170;2023-03-16T05:12:56;0.80;99.90
39621;DHT22;25309;48.686;9.170;2023-03-16T05:15:24;0.80;99.90
39621;DHT22;25309;48.686;9.170;2023-03-16T05:17:58;0.80;99.90
39621;DHT22;25309;48.686;9.170;2023-03-16T05:20:25;0.90;99.90
39621;DHT22;25309;48.686;9.170;2023-03-16T05:22:57;0.90;99.90
39621;DHT22;25309;48.686;9.170;2023-03-16T05:25:33;0.90;99.90
39621;DHT22;25309;48.686;9.170;2023-03-16T05:28:03;0.90;99.90
39621;DHT22;25309;48.686;9.170;2023-03-16T05:30:52;1.00;99.90
39621;DHT22;25309;48.686;9.170;2023-03-16T05:33:24;0.90;99.90
39621;DHT22;25309;48.686;9.170;2023-03-16T05:35:57;0.90;99.90
39621;DHT22;25309;48.686;9.170;2023-03-16T05:38:24;0.80;99.90
39621;DHT22;25309;48.686;9.170;2023-03-16T05:40:54;0.80;99.90
39621;DHT22;25309;48.686;9.170;2023-03-16T05:43:38;0.70;99.90
39621;DHT22;25309;48.686;9.170;2023-03-16T05:46:06;0.70;99.90
39621;DHT22;25309;48.686;9.170;2023-03-16T05:48:33;0.70;99.90
39621;DHT22;25309;48.686;9.170;2023-03-16T05:51:05;0.80;99.90
39621;DHT22;25309;48.686;9.170;2023-03-16T05:53:33;0.80;99.90
39621;DHT22;25309;48.686;9.170;2023-03-16T05:56:10;0.80;99.90
39621;DHT22;25309;48.686;9.170;2023-03-16T05:58:40;0.90;99.90
39621;DHT22;25309;48.686;9.170;2023-03-16T06:01:10;0.90;99.90
39621;DHT22;25309;48.686;9.170;2023-03-16T06:03:40;0.90;99.90
39621;DHT22;25309;48.686;9.170;2023-03-16T06:06:11;1.00;99.90
39621;DHT22;25309;48.686;9.170;2023-03-16T06:08:48;1.00;99.90
39621;DHT22;25309;48.686;9.170;2023-03-16T06:11:17;1.10;99.90
39621;DHT22;25309;48.686;9.170;2023-03-16T06:13:44;1.10;99.90
39621;DHT22;25309;48.686;9.170;2023-03-16T06:16:13;1.10;99.90
39621;DHT22;25309;48.686;9.170;2023-03-16T06:18:42;1.10;99.90
39621;DHT22;25309;48.686;9.170;2023-03-16T06:21:09;1.10;99.90
39621;DHT22;25309;48.686;9.170;2023-03-16T06:23:37;1.10;99.90
39621;DHT22;25309;48.686;9.170;2023-03-16T06:26:06;1.10;99.90
39621;DHT22;25309;48.686;9.170;2023-03-16T06:28:35;1.20;99.90
39621;DHT22;25309;48.686;9.170;2023-03-16T06:31:02;1.20;99.90
39621;DHT22;25309;48.686;9.170;2023-03-16T06:33:34;1.20;99.90
39621;DHT22;25309;48.686;9.170;2023-03-16T06:36:02;1.30;99.90
39621;DHT22;25309;48.686;9.170;2023-03-16T06:38:33;1.30;99.90
39621;DHT22;25309;48.686;9.170;2023-03-16T06:41:08;1.30;99.90
39621;DHT22;25309;48.686;9.170;2023-03-16T06:43:35;1.40;99.90
39621;DHT22;25309;48.686;9.170;2023-03-16T06:46:02;1.30;99.90
39621;DHT22;25309;48.686;9.170;2023-03-16T06:48:30;1.40;99.90
39621;DHT22;25309;48.686;9.170;2023-03-16T06:50:58;1.50;99.90
39621;DHT22;25309;48.686;9.170;2023-03-16T06:53:27;1.50;99.90
39621;DHT22;25309;48.686;9.170;2023-03-16T06:55:55;1.60;99.90
39621;DHT22;25309;48.686;9.170;2023-03-16T06:58:23;1.60;99.90
39621;DHT22;25309;48.686;9.170;2023-03-16T07:00:49;1.70;99.90
39621;DHT22;25309;48.686;9.170;2023-03-16T07:03:19;1.70;99.90
39621;DHT22;25309;48.686;9.170;2023-03-16T07:05:53;1.80;99.90
39621;DHT22;25309;48.686;9.170;2023-03-16T07:08:21;1.90;99.90
39621;DHT22;25309;48.686;9.170;2023-03-16T07:10:49;2.00;99.90
39621;DHT22;25309;48.686;9.170;2023-03-16T07:13:17;2.10;99.90
39621;DHT22;25309;48.686;9.170;2023-03-16T07:15:44;2.20;99.90
39621;DHT22;25309;48.686;9.170;2023-03-16T07:18:11;2.30;99.90
39621;DHT22;25309;48.686;9.170;2023-03-16T07:20:38;2.40;99.90
39621;DHT22;25309;48.686;9.170;2023-03-16T07:23:05;2.50;99.90
39621;DHT22;25309;48.686;9.170;2023-03-16T07:25:35;2.50;99.90
39621;DHT22;25309;48.686;9.170;2023-03-16T07:28:03;2.60;99.90
39621;DHT22;25309;48.686;9.170;2023-03-16T07:30:36;2.70;99.90
39621;DHT22;25309;48.686;9.170;2023-03-16T07:33:04;2.80;99.90
39621;DHT22;25309;48.686;9.170;2023-03-16T07:35:31;2.90;99.90
39621;DHT22;25309;48.686;9.170;2023-03-16T07:37:59;3.10;99.90
39621;DHT22;25309;48.686;9.170;2023-03-16T07:40:26;3.20;99.90
39621;DHT22;25309;48.686;9.170;2023-03-16T07:43:00;3.30;99.90
39621;DHT22;25309;48.686;9.170;2023-03-16T07:45:33;3.50;99.90
39621;DHT22;25309;48.686;9.170;2023-03-16T07:48:02;3.60;99.90
39621;DHT22;25309;48.686;9.170;2023-03-16T07:50:42;3.80;99.90
39621;DHT22;25309;48.686;9.170;2023-03-16T07:53:09;3.90;99.90
39621;DHT22;25309;48.686;9.170;2023-03-16T07:55:38;4.00;99.90
39621;DHT22;25309;48.686;9.170;2023-03-16T07:58:08;4.10;99.90
39621;DHT22;25309;48.686;9.170;2023-03-16T08:00:39;4.10;99.90
39621;DHT22;25309;48.686;9.170;2023-03-16T08:03:08;4.20;99.90
39621;DHT22;25309;48.686;9.170;2023-03-16T08:05:35;4.50;99.90
39621;DHT22;25309;48.686;9.170;2023-03-16T08:08:08;4.70;99.90
39621;DHT22;25309;48.686;9.170;2023-03-16T08:10:37;5.10;99.90
39621;DHT22;25309;48.686;9.170;2023-03-16T08:13:12;5.60;99.90
39621;DHT22;25309;48.686;9.170;2023-03-16T08:15:45;6.20;99.90
39621;DHT22;25309;48.686;9.170;2023-03-16T08:18:20;7.00;99.90
39621;DHT22;25309;48.686;9.170;2023-03-16T08:20:50;8.10;99.90
39621;DHT22;25309;48.686;9.170;2023-03-16T08:23:17;9.20;99.90
39621;DHT22;25309;48.686;9.170;2023-03-16T08:25:45;10.10;99.90
39621;DHT22;25309;48.686;9.170;2023-03-16T08:28:17;10.80;99.90
39621;DHT22;25309;48.686;9.170;2023-03-16T08:30:49;11.70;99.90
39621;DHT22;25309;48.686;9.170;2023-03-16T08:33:27;12.40;99.90
39621;DHT22;25309;48.686;9.170;2023-03-16T08:35:54;12.80;98.80
39621;DHT22;25309;48.686;9.170;2023-03-16T08:38:22;13.10;99.00
39621;DHT22;25309;48.686;9.170;2023-03-16T08:40:50;13.70;98.50
39621;DHT22;25309;48.686;9.170;2023-03-16T08:43:21;14.20;96.90
39621;DHT22;25309;48.686;9.170;2023-03-16T08:45:48;14.30;94.50
39621;DHT22;25309;48.686;9.170;2023-03-16T08:48:19;14.10;94.60
39621;DHT22;25309;48.686;9.170;2023-03-16T08:50:48;14.20;95.50
39621;DHT22;25309;48.686;9.170;2023-03-16T08:53:15;14.50;93.80
39621;DHT22;25309;48.686;9.170;2023-03-16T08:55:42;14.50;93.30
39621;DHT22;25309;48.686;9.170;2023-03-16T08:58:10;14.80;94.30
39621;DHT22;25309;48.686;9.170;2023-03-16T09:00:39;15.10;93.60
39621;DHT22;25309;48.686;9.170;2023-03-16T09:03:06;15.50;92.90
39621;DHT22;25309;48.686;9.170;2023-03-16T09:05:33;15.60;91.70
39621;DHT22;25309;48.686;9.170;2023-03-16T09:08:00;15.40;92.30
39621;DHT22;25309;48.686;9.170;2023-03-16T09:10:29;15.60;91.30
39621;DHT22;25309;48.686;9.170;2023-03-16T09:12:58;15.80;90.80
39621;DHT22;25309;48.686;9.170;2023-03-16T09:15:25;15.90;89.80
39621;DHT22;25309;48.686;9.170;2023-03-16T09:17:53;16.30;90.30
39621;DHT22;25309;48.686;9.170;2023-03-16T09:20:23;16.60;87.90
39621;DHT22;25309;48.686;9.170;2023-03-16T09:22:56;16.40;89.30
39621;DHT22;25309;48.686;9.170;2023-03-16T09:25:23;16.90;86.70
39621;DHT22;25309;48.686;9.170;2023-03-16T09:27:54;16.70;86.60
39621;DHT22;25309;48.686;9.170;2023-03-16T09:30:21;16.80;84.50
39621;DHT22;25309;48.686;9.170;2023-03-16T09:32:48;16.80;86.10
39621;DHT22;25309;48.686;9.170;2023-03-16T09:35:17;17.00;86.60
39621;DHT22;25309;48.686;9.170;2023-03-16T09:37:45;17.30;86.00
39621;DHT22;25309;48.686;9.170;2023-03-16T09:40:31;17.50;85.80
39621;DHT22;25309;48.686;9.170;2023-03-16T09:43:19;17.80;81.10
39621;DHT22;25309;48.686;9.170;2023-03-16T09:45:55;18.30;85.00
39621;DHT22;25309;48.686;9.170;2023-03-16T09:48:27;18.20;79.50
39621;DHT22;25309;48.686;9.170;2023-03-16T09:50:57;18.30;80.90
39621;DHT22;25309;48.686;9.170;2023-03-16T09:53:28;18.00;79.30
39621;DHT22;25309;48.686;9.170;2023-03-16T09:55:59;17.90;82.80
39621;DHT22;25309;48.686;9.170;2023-03-16T09:58:27;17.50;80.10
39621;DHT22;25309;48.686;9.170;2023-03-16T10:01:01;15.70;82.70
39621;DHT22;25309;48.686;9.170;2023-03-16T10:03:38;15.40;86.40
39621;DHT22;25309;48.686;9.170;2023-03-16T10:06:11;15.20;86.60
39621;DHT22;25309;48.686;9.170;2023-03-16T10:08:42;14.70;86.80
39621;DHT22;25309;48.686;9.170;2023-03-16T10:11:22;14.70;87.50
39621;DHT22;25309;48.686;9.170;2023-03-16T10:13:53;14.40;88.00
39621;DHT22;25309;48.686;9.170;2023-03-16T10:16:25;14.10;88.40
39621;DHT22;25309;48.686;9.170;2023-03-16T10:18:58;14.20;90.30
39621;DHT22;25309;48.686;9.170;2023-03-16T10:21:30;14.40;89.00
39621;DHT22;25309;48.686;9.170;2023-03-16T10:23:59;14.50;87.70
39621;DHT22;25309;48.686;9.170;2023-03-16T10:26:35;14.90;88.10
39621;DHT22;25309;48.686;9.170;2023-03-16T10:29:10;15.00;87.10
39621;DHT22;25309;48.686;9.170;2023-03-16T10:31:39;14.70;86.10
39621;DHT22;25309;48.686;9.170;2023-03-16T10:34:07;14.80;88.80
39621;DHT22;25309;48.686;9.170;2023-03-16T10:36:40;15.10;87.30
39621;DHT22;25309;48.686;9.170;2023-03-16T10:39:11;15.20;86.20
39621;DHT22;25309;48.686;9.170;2023-03-16T10:41:40;15.40;85.10
39621;DHT22;25309;48.686;9.170;2023-03-16T10:44:10;15.60;86.20
39621;DHT22;25309;48.686;9.170;2023-03-16T10:46:39;15.90;84.80
39621;DHT22;25309;48.686;9.170;2023-03-16T10:49:20;16.10;83.60
39621;DHT22;25309;48.686;9.170;2023-03-16T10:51:49;15.80;82.10
39621;DHT22;25309;48.686;9.170;2023-03-16T10:54:23;15.80;83.20
39621;DHT22;25309;48.686;9.170;2023-03-16T10:56:53;16.00;84.10
39621;DHT22;25309;48.686;9.170;2023-03-16T10:59:28;15.70;80.80
39621;DHT22;25309;48.686;9.170;2023-03-16T11:01:57;15.60;79.20
39621;DHT22;25309;48.686;9.170;2023-03-16T11:04:30;15.70;81.60
39621;DHT22;25309;48.686;9.170;2023-03-16T11:06:59;15.90;81.50
39621;DHT22;25309;48.686;9.170;2023-03-16T11:09:31;15.60;79.80
39621;DHT22;25309;48.686;9.170;2023-03-16T11:11:59;15.60;82.20
39621;DHT22;25309;48.686;9.170;2023-03-16T11:14:27;15.80;81.40
39621;DHT22;25309;48.686;9.170;2023-03-16T11:16:59;16.00;80.60
39621;DHT22;25309;48.686;9.170;2023-03-16T11:19:30;16.20;82.30
39621;DHT22;25309;48.686;9.170;2023-03-16T11:22:01;16.30;78.50
39621;DHT22;25309;48.686;9.170;2023-03-16T11:24:35;16.30;79.00
39621;DHT22;25309;48.686;9.170;2023-03-16T11:27:04;16.10;78.50
39621;DHT22;25309;48.686;9.170;2023-03-16T11:29:46;16.20;79.30
39621;DHT22;25309;48.686;9.170;2023-03-16T11:32:20;16.50;79.40
39621;DHT22;25309;48.686;9.170;2023-03-16T11:34:51;16.60;76.00
39621;DHT22;25309;48.686;9.170;2023-03-16T11:37:28;16.20;77.60
39621;DHT22;25309;48.686;9.170;2023-03-16T11:40:02;16.10;76.60
39621;DHT22;25309;48.686;9.170;2023-03-16T11:42:46;15.80;76.00
39621;DHT22;25309;48.686;9.170;2023-03-16T11:45:22;15.50;77.70
39621;DHT22;25309;48.686;9.170;2023-03-16T11:48:13;15.70;78.70
39621;DHT22;25309;48.686;9.170;2023-03-16T11:50:56;16.00;76.40
39621;DHT22;25309;48.686;9.170;2023-03-16T11:53:38;15.90;75.40
39621;DHT22;25309;48.686;9.170;2023-03-16T11:56:15;15.90;76.10
39621;DHT22;25309;48.686;9.170;2023-03-16T12:02:27;16.50;78.40
39621;DHT22;25309;48.686;9.170;2023-03-16T12:05:21;16.70;75.90
39621;DHT22;25309;48.686;9.170;2023-03-16T12:07:57;16.80;74.60
39621;DHT22;25309;48.686;9.170;2023-03-16T12:10:31;16.60;74.20
39621;DHT22;25309;48.686;9.170;2023-03-16T12:15:48;16.20;74.60
39621;DHT22;25309;48.686;9.170;2023-03-16T12:18:20;16.10;75.10
39621;DHT22;25309;48.686;9.170;2023-03-16T12:20:54;15.90;74.40
39621;DHT22;25309;48.686;9.170;2023-03-16T12:23:27;15.90;77.60
39621;DHT22;25309;48.686;9.170;2023-03-16T12:26:02;16.20;77.10
39621;DHT22;25309;48.686;9.170;2023-03-16T12:28:30;16.20;73.00
39621;DHT22;25309;48.686;9.170;2023-03-16T12:31:05;15.80;73.10
39621;DHT22;25309;48.686;9.170;2023-03-16T12:34:03;15.70;77.40
39621;DHT22;25309;48.686;9.170;2023-03-16T12:39:39;16.00;76.30
39621;DHT22;25309;48.686;9.170;2023-03-16T12:42:24;16.30;74.00
39621;DHT22;25309;48.686;9.170;2023-03-16T12:44:55;16.60;71.00
39621;DHT22;25309;48.686;9.170;2023-03-16T12:47:28;16.70;69.80
39621;DHT22;25309;48.686;9.170;2023-03-16T12:50:03;16.90;69.90
39621;DHT22;25309;48.686;9.170;2023-03-16T12:52:39;17.10;70.60
39621;DHT22;25309;48.686;9.170;2023-03-16T12:55:11;17.00;67.40
39621;DHT22;25309;48.686;9.170;2023-03-16T12:57:41;16.60;67.40
39621;DHT22;25309;48.686;9.170;2023-03-16T13:00:10;16.20;70.20
39621;DHT22;25309;48.686;9.170;2023-03-16T13:02:42;15.90;68.40
39621;DHT22;25309;48.686;9.170;2023-03-16T13:05:12;15.60;70.80
39621;DHT22;25309;48.686;9.170;2023-03-16T13:07:46;15.70;71.30
39621;DHT22;25309;48.686;9.170;2023-03-16T13:10:14;15.70;70.50
39621;DHT22;25309;48.686;9.170;2023-03-16T13:12:43;15.90;70.50
39621;DHT22;25309;48.686;9.170;2023-03-16T13:15:26;16.20;69.90
39621;DHT22;25309;48.686;9.170;2023-03-16T13:18:03;16.10;69.60
39621;DHT22;25309;48.686;9.170;2023-03-16T13:20:31;16.30;69.70
39621;DHT22;25309;48.686;9.170;2023-03-16T13:23:08;16.40;71.60
39621;DHT22;25309;48.686;9.170;2023-03-16T13:25:54;16.60;68.60
39621;DHT22;25309;48.686;9.170;2023-03-16T13:28:28;16.20;68.70
39621;DHT22;25309;48.686;9.170;2023-03-16T13:30:57;15.60;68.60
39621;DHT22;25309;48.686;9.170;2023-03-16T13:33:27;15.20;70.90
39621;DHT22;25309;48.686;9.170;2023-03-16T13:35:57;15.40;72.10
39621;DHT22;25309;48.686;9.170;2023-03-16T13:38:26;15.60;69.90
39621;DHT22;25309;48.686;9.170;2023-03-16T13:40:56;15.60;69.40
39621;DHT22;25309;48.686;9.170;2023-03-16T13:43:27;15.50;68.70
39621;DHT22;25309;48.686;9.170;2023-03-16T13:46:12;15.10;69.00
39621;DHT22;25309;48.686;9.170;2023-03-16T13:48:40;14.70;69.90
39621;DHT22;25309;48.686;9.170;2023-03-16T13:51:13;14.60;70.20
39621;DHT22;25309;48.686;9.170;2023-03-16T13:53:42;14.50;71.00
39621;DHT22;25309;48.686;9.170;2023-03-16T13:56:12;14.50;72.10
39621;DHT22;25309;48.686;9.170;2023-03-16T13:58:44;14.30;72.20
39621;DHT22;25309;48.686;9.170;2023-03-16T14:01:18;14.60;71.00
39621;DHT22;25309;48.686;9.170;2023-03-16T14:03:46;14.60;71.40
39621;DHT22;25309;48.686;9.170;2023-03-16T14:06:21;14.60;72.40
39621;DHT22;25309;48.686;9.170;2023-03-16T14:08:50;14.80;70.70
39621;DHT22;25309;48.686;9.170;2023-03-16T14:11:19;14.80;71.00
39621;DHT22;25309;48.686;9.170;2023-03-16T14:13:51;14.70;69.90
39621;DHT22;25309;48.686;9.170;2023-03-16T14:16:21;14.70;71.10
39621;DHT22;25309;48.686;9.170;2023-03-16T14:18:53;14.80;70.30
39621;DHT22;25309;48.686;9.170;2023-03-16T14:21:23;14.80;71.00
39621;DHT22;25309;48.686;9.170;2023-03-16T14:23:53;14.90;70.50
39621;DHT22;25309;48.686;9.170;2023-03-16T14:26:22;14.80;69.90
39621;DHT22;25309;48.686;9.170;2023-03-16T14:28:56;14.70;68.20
39621;DHT22;25309;48.686;9.170;2023-03-16T14:31:31;14.40;69.60
39621;DHT22;25309;48.686;9.170;2023-03-16T14:34:00;14.40;70.00
39621;DHT22;25309;48.686;9.170;2023-03-16T14:36:34;14.30;70.70
39621;DHT22;25309;48.686;9.170;2023-03-16T14:39:09;14.10;72.60
39621;DHT22;25309;48.686;9.170;2023-03-16T14:41:37;13.90;70.00
39621;DHT22;25309;48.686;9.170;2023-03-16T14:44:16;13.90;71.10
39621;DHT22;25309;48.686;9.170;2023-03-16T14:46:44;13.90;72.10
39621;DHT22;25309;48.686;9.170;2023-03-16T14:49:18;14.00;72.10
39621;DHT22;25309;48.686;9.170;2023-03-16T14:51:48;13.80;71.10
39621;DHT22;25309;48.686;9.170;2023-03-16T14:54:17;13.60;71.90
39621;DHT22;25309;48.686;9.170;2023-03-16T14:56:47;13.50;72.50
39621;DHT22;25309;48.686;9.170;2023-03-16T14:59:15;13.60;73.60
39621;DHT22;25309;48.686;9.170;2023-03-16T15:01:44;13.80;74.10
39621;DHT22;25309;48.686;9.170;2023-03-16T15:04:14;13.90;74.00
39621;DHT22;25309;48.686;9.170;2023-03-16T15:06:41;13.90;73.90
39621;DHT22;25309;48.686;9.170;2023-03-16T15:09:25;13.80;73.50
39621;DHT22;25309;48.686;9.170;2023-03-16T15:11:54;13.70;71.50
39621;DHT22;25309;48.686;9.170;2023-03-16T15:14:25;13.50;72.70
39621;DHT22;25309;48.686;9.170;2023-03-16T15:17:10;13.40;72.40
39621;DHT22;25309;48.686;9.170;2023-03-16T15:19:37;13.30;71.90
39621;DHT22;25309;48.686;9.170;2023-03-16T15:22:04;13.20;73.80
39621;DHT22;25309;48.686;9.170;2023-03-16T15:24:32;13.20;74.60
39621;DHT22;25309;48.686;9.170;2023-03-16T15:26:59;13.30;75.20
39621;DHT22;25309;48.686;9.170;2023-03-16T15:29:28;13.20;74.40
39621;DHT22;25309;48.686;9.170;2023-03-16T15:31:55;13.10;72.90
39621;DHT22;25309;48.686;9.170;2023-03-16T15:34:21;13.10;74.90
39621;DHT22;25309;48.686;9.170;2023-03-16T15:36:48;13.10;76.30
39621;DHT22;25309;48.686;9.170;2023-03-16T15:39:20;13.00;75.70
39621;DHT22;25309;48.686;9.170;2023-03-16T15:41:48;13.00;75.70
39621;DHT22;25309;48.686;9.170;2023-03-16T15:44:16;12.90;76.00
39621;DHT22;25309;48.686;9.170;2023-03-16T15:46:44;12.90;75.50
39621;DHT22;25309;48.686;9.170;2023-03-16T15:49:11;13.00;75.80
39621;DHT22;25309;48.686;9.170;2023-03-16T15:51:38;12.90;75.40
39621;DHT22;25309;48.686;9.170;2023-03-16T15:54:06;12.90;76.20
39621;DHT22;25309;48.686;9.170;2023-03-16T15:56:36;12.80;75.20
39621;DHT22;25309;48.686;9.170;2023-03-16T15:59:19;12.90;76.60
39621;DHT22;25309;48.686;9.170;2023-03-16T16:01:49;12.90;76.30
39621;DHT22;25309;48.686;9.170;2023-03-16T16:04:18;12.90;77.10
39621;DHT22;25309;48.686;9.170;2023-03-16T16:06:46;12.80;77.30
39621;DHT22;25309;48.686;9.170;2023-03-16T16:09:14;12.80;77.90
39621;DHT22;25309;48.686;9.170;2023-03-16T16:11:41;12.70;77.30